sensor_id;sensor_type;location;lat;lon;timestamp;temperature;humidity
3944;DHT22;1986;52.546;13.428;2024-03-07T00:01:22;5.70;99.90
3944;DHT22;1986;52.546;13.428;2024-03-07T00:03:52;5.70;99.90
3944;DHT22;1986;52.546;13.428;2024-03-07T00:06:21;5.70;99.90
3944;DHT22;1986;52.546;13.428;2024-03-07T00:08:48;5.70;99.90
3944;DHT22;1986;52.546;13.428;2024-03-07T00:11:16;5.70;99.90
3944;DHT22;1986;52.546;13.428;2024-03-07T00:13:44;5.70;99.90
3944;DHT22;1986;52.546;13.428;2024-03-07T00:16:12;5.70;99.90
3944;DHT22;1986;52.546;13.428;2024-03-07T00:18:40;5.70;99.90
3944;DHT22;1986;52.546;13.428;2024-03-07T00:21:07;5.70;99.90
3944;DHT22;1986;52.546;13.428;2024-03-07T00:23:37;5.70;99.90
3944;DHT22;1986;52.546;13.428;2024-03-07T00:26:11;5.70;99.90
3944;DHT22;1986;52.546;13.428;2024-03-07T00:28:46;5.70;99.90
3944;DHT22;1986;52.546;13.428;2024-03-07T00:31:30;5.70;99.90
3944;DHT22;1986;52.546;13.428;2024-03-07T00:34:13;5.70;99.90
3944;DHT22;1986;52.546;13.428;2024-03-07T00:36:53;5.70;99.90
3944;DHT22;1986;52.546;13.428;2024-03-07T00:39:29;5.70;99.90
3944;DHT22;1986;52.546;13.428;2024-03-07T00:42:04;5.70;99.90
3944;DHT22;1986;52.546;13.428;2024-03-07T00:44:46;5.70;99.90
3944;DHT22;1986;52.546;13.428;2024-03-07T00:47:33;5.70;99.90
3944;DHT22;1986;52.546;13.428;2024-03-07T00:50:05;5.60;99.90
3944;DHT22;1986;52.546;13.428;2024-03-07T00:52:41;5.70;99.90
3944;DHT22;1986;52.546;13.428;2024-03-07T00:55:20;5.70;99.90
3944;DHT22;1986;52.546;13.428;2024-03-07T00:57:53;5.70;99.90
3944;DHT22;1986;52.546;13.428;2024-03-07T01:00:36;5.70;99.90
3944;DHT22;1986;52.546;13.428;2024-03-07T01:03:11;5.70;99.90
3944;DHT22;1986;52.546;13.428;2024-03-07T01:05:45;5.60;99.90
3944;DHT22;1986;52.546;13.428;2024-03-07T01:08:23;5.60;99.90
3944;DHT22;1986;52.546;13.428;2024-03-07T01:10:53;5.60;99.90
3944;DHT22;1986;52.546;13.428;2024-03-07T01:13:21;5.50;99.90
3944;DHT22;1986;52.546;13.428;2024-03-07T01:16:05;5.60;99.90
3944;DHT22;1986;52.546;13.428;2024-03-07T01:18:37;5.50;99.90
3944;DHT22;1986;52.546;13.428;2024-03-07T01:21:06;5.50;99.90
3944;DHT22;1986;52.546;13.428;2024-03-07T01:23:37;5.50;99.90
3944;DHT22;1986;52.546;13.428;2024-03-07T01:26:10;5.40;99.90
3944;DHT22;1986;52.546;13.428;2024-03-07T01:28:46;5.40;99.90
3944;DHT22;1986;52.546;13.428;2024-03-07T01:31:21;5.30;99.90
3944;DHT22;1986;52.546;13.428;2024-03-07T01:33:49;5.40;99.90
3944;DHT22;1986;52.546;13.428;2024-03-07T01:36:18;5.40;99.90
3944;DHT22;1986;52.546;13.428;2024-03-07T01:38:45;5.30;99.90
3944;DHT22;1986;52.546;13.428;2024-03-07T01:41:12;5.30;99.90
3944;DHT22;1986;52.546;13.428;2024-03-07T01:43:40;5.30;99.90
3944;DHT22;1986;52.546;13.428;2024-03-07T01:46:06;5.30;99.90
3944;DHT22;1986;52.546;13.428;2024-03-07T01:48:35;5.20;99.90
3944;DHT22;1986;52.546;13.428;2024-03-07T01:51:04;5.10;99.90
3944;DHT22;1986;52.546;13.428;2024-03-07T01:53:33;5.00;99.90
3944;DHT22;1986;52.546;13.428;2024-03-07T01:56:00;5.10;99.90
3944;DHT22;1986;52.546;13.428;2024-03-07T01:58:30;5.10;99.90
3944;DHT22;1986;52.546;13.428;2024-03-07T02:00:59;5.00;99.90
3944;DHT22;1986;52.546;13.428;2024-03-07T02:03:28;5.10;99.90
3944;DHT22;1986;52.546;13.428;2024-03-07T02:05:57;5.10;99.90
3944;DHT22;1986;52.546;13.428;2024-03-07T02:08:24;5.00;99.90
3944;DHT22;1986;52.546;13.428;2024-03-07T02:10:51;5.00;99.90
3944;DHT22;1986;52.546;13.428;2024-03-07T02:13:17;5.00;99.90
3944;DHT22;1986;52.546;13.428;2024-03-07T02:15:45;5.00;99.90
3944;DHT22;1986;52.546;13.428;2024-03-07T02:18:12;5.00;99.90
3944;DHT22;1986;52.546;13.428;2024-03-07T02:20:44;4.90;99.90
3944;DHT22;1986;52.546;13.428;2024-03-07T02:23:12;4.90;99.90
3944;DHT22;1986;52.546;13.428;2024-03-07T02:25:40;4.80;99.90
3944;DHT22;1986;52.546;13.428;2024-03-07T02:28:09;4.80;99.90
3944;DHT22;1986;52.546;13.428;2024-03-07T02:30:38;4.80;99.90
3944;DHT22;1986;52.546;13.428;2024-03-07T02:33:05;4.80;99.90
3944;DHT22;1986;52.546;13.428;2024-03-07T02:35:33;4.70;99.90
3944;DHT22;1986;52.546;13.428;2024-03-07T02:38:05;4.70;99.90
3944;DHT22;1986;52.546;13.428;2024-03-07T02:40:32;4.70;99.90
3944;DHT22;1986;52.546;13.428;2024-03-07T02:42:59;4.60;99.90
3944;DHT22;1986;52.546;13.428;2024-03-07T02:45:27;4.60;99.90
3944;DHT22;1986;52.546;13.428;2024-03-07T02:47:55;4.60;99.90
3944;DHT22;1986;52.546;13.428;2024-03-07T02:50:22;4.50;99.90
3944;DHT22;1986;52.546;13.428;2024-03-07T02:52:50;4.50;99.90
3944;DHT22;1986;52.546;13.428;2024-03-07T02:55:19;4.50;99.90
3944;DHT22;1986;52.546;13.428;2024-03-07T02:57:46;4.40;99.90
3944;DHT22;1986;52.546;13.428;2024-03-07T03:00:15;4.40;99.90
3944;DHT22;1986;52.546;13.428;2024-03-07T03:02:52;4.40;99.90
3944;DHT22;1986;52.546;13.428;2024-03-07T03:05:19;4.30;99.90
3944;DHT22;1986;52.546;13.428;2024-03-07T03:07:46;4.20;99.90
3944;DHT22;1986;52.546;13.428;2024-03-07T03:10:21;4.20;99.90
3944;DHT22;1986;52.546;13.428;2024-03-07T03:12:52;4.20;99.90
3944;DHT22;1986;52.546;13.428;2024-03-07T03:15:19;4.20;99.90
3944;DHT22;1986;52.546;13.428;2024-03-07T03:17:47;4.10;99.90
3944;DHT22;1986;52.546;13.428;2024-03-07T03:20:14;4.10;99.90
3944;DHT22;1986;52.546;13.428;2024-03-07T03:22:54;4.10;99.90
3944;DHT22;1986;52.546;13.428;2024-03-07T03:25:22;4.00;99.90
3944;DHT22;1986;52.546;13.428;2024-03-07T03:27:50;4.00;99.90
3944;DHT22;1986;52.546;13.428;2024-03-07T03:30:17;4.00;99.90
3944;DHT22;1986;52.546;13.428;2024-03-07T03:32:45;3.90;99.90
3944;DHT22;1986;52.546;13.428;2024-03-07T03:35:13;3.90;99.90
3944;DHT22;1986;52.546;13.428;2024-03-07T03:37:41;3.90;99.90
3944;DHT22;1986;52.546;13.428;2024-03-07T03:40:09;3.80;99.90
3944;DHT22;1986;52.546;13.428;2024-03-07T03:42:39;3.80;99.90
3944;DHT22;1986;52.546;13.428;2024-03-07T03:45:07;3.80;99.90
3944;DHT22;1986;52.546;13.428;2024-03-07T03:47:35;3.70;99.90
3944;DHT22;1986;52.546;13.428;2024-03-07T03:50:03;3.70;99.90
3944;DHT22;1986;52.546;13.428;2024-03-07T03:52:30;3.70;99.90
3944;DHT22;1986;52.546;13.428;2024-03-07T03:54:58;3.70;99.90
3944;DHT22;1986;52.546;13.428;2024-03-07T03:57:25;3.70;99.90
3944;DHT22;1986;52.546;13.428;2024-03-07T03:59:53;3.60;99.90
3944;DHT22;1986;52.546;13.428;2024-03-07T04:02:21;3.60;99.90
3944;DHT22;1986;52.546;13.428;2024-03-07T04:04:49;3.50;99.90
3944;DHT22;1986;52.546;13.428;2024-03-07T04:07:17;3.50;99.90
3944;DHT22;1986;52.546;13.428;2024-03-07T04:09:44;3.50;99.90
3944;DHT22;1986;52.546;13.428;2024-03-07T04:12:12;3.40;99.90
3944;DHT22;1986;52.546;13.428;2024-03-07T04:14:39;3.40;99.90
3944;DHT22;1986;52.546;13.428;2024-03-07T04:17:08;3.40;99.90
3944;DHT22;1986;52.546;13.428;2024-03-07T04:19:39;3.40;99.90
3944;DHT22;1986;52.546;13.428;2024-03-07T04:22:06;3.40;99.90
3944;DHT22;1986;52.546;13.428;2024-03-07T04:24:33;3.40;99.90
3944;DHT22;1986;52.546;13.428;2024-03-07T04:27:06;3.40;99.90
3944;DHT22;1986;52.546;13.428;2024-03-07T04:29:33;3.30;99.90
3944;DHT22;1986;52.546;13.428;2024-03-07T04:32:01;3.30;99.90
3944;DHT22;1986;52.546;13.428;2024-03-07T04:34:31;3.30;99.90
3944;DHT22;1986;52.546;13.428;2024-03-07T04:36:58;3.30;99.90
3944;DHT22;1986;52.546;13.428;2024-03-07T04:39:26;3.30;99.90
3944;DHT22;1986;52.546;13.428;2024-03-07T04:41:58;3.20;99.90
3944;DHT22;1986;52.546;13.428;2024-03-07T04:44:26;3.20;99.90
3944;DHT22;1986;52.546;13.428;2024-03-07T04:46:53;3.20;99.90
3944;DHT22;1986;52.546;13.428;2024-03-07T04:49:21;3.20;99.90
3944;DHT22;1986;52.546;13.428;2024-03-07T04:51:51;3.20;99.90
3944;DHT22;1986;52.546;13.428;2024-03-07T04:54:18;3.10;99.90
3944;DHT22;1986;52.546;13.428;2024-03-07T04:56:45;3.10;99.90
3944;DHT22;1986;52.546;13.428;2024-03-07T04:59:15;3.10;99.90
3944;DHT22;1986;52.546;13.428;2024-03-07T05:01:43;3.10;99.90
3944;DHT22;1986;52.546;13.428;2024-03-07T05:04:12;3.00;99.90
3944;DHT22;1986;52.546;13.428;2024-03-07T05:06:39;3.00;99.90
3944;DHT22;1986;52.546;13.428;2024-03-07T05:09:09;3.00;99.90
3944;DHT22;1986;52.546;13.428;2024-03-07T05:11:47;3.00;99.90
3944;DHT22;1986;52.546;13.428;2024-03-07T05:14:14;3.00;99.90
3944;DHT22;1986;52.546;13.428;2024-03-07T05:16:42;3.00;99.90
3944;DHT22;1986;52.546;13.428;2024-03-07T05:19:09;2.90;99.90
3944;DHT22;1986;52.546;13.428;2024-03-07T05:21:36;2.90;99.90
3944;DHT22;1986;52.546;13.428;2024-03-07T05:24:10;2.80;99.90
3944;DHT22;1986;52.546;13.428;2024-03-07T05:26:43;2.80;99.90
3944;DHT22;1986;52.546;13.428;2024-03-07T05:29:10;2.80;99.90
3944;DHT22;1986;52.546;13.428;2024-03-07T05:31:40;2.80;99.90
3944;DHT22;1986;52.546;13.428;2024-03-07T05:34:12;2.70;99.90
3944;DHT22;1986;52.546;13.428;2024-03-07T05:36:40;2.70;99.90
3944;DHT22;1986;52.546;13.428;2024-03-07T05:39:12;2.70;99.90
3944;DHT22;1986;52.546;13.428;2024-03-07T05:41:45;2.70;99.90
3944;DHT22;1986;52.546;13.428;2024-03-07T05:44:14;2.60;99.90
3944;DHT22;1986;52.546;13.428;2024-03-07T05:46:43;2.60;99.90
3944;DHT22;1986;52.546;13.428;2024-03-07T05:49:14;2.60;99.90
3944;DHT22;1986;52.546;13.428;2024-03-07T05:51:45;2.60;99.90
3944;DHT22;1986;52.546;13.428;2024-03-07T05:54:18;2.60;99.90
3944;DHT22;1986;52.546;13.428;2024-03-07T05:56:51;2.50;99.90
3944;DHT22;1986;52.546;13.428;2024-03-07T05:59:22;2.50;99.90
3944;DHT22;1986;52.546;13.428;2024-03-07T06:01:57;2.50;99.90
3944;DHT22;1986;52.546;13.428;2024-03-07T06:04:33;2.50;99.90
3944;DHT22;1986;52.546;13.428;2024-03-07T06:07:13;2.50;99.90
3944;DHT22;1986;52.546;13.428;2024-03-07T06:10:00;2.50;99.90
3944;DHT22;1986;52.546;13.428;2024-03-07T06:12:32;2.60;99.90
3944;DHT22;1986;52.546;13.428;2024-03-07T06:15:01;2.60;99.90
3944;DHT22;1986;52.546;13.428;2024-03-07T06:17:30;2.60;99.90
3944;DHT22;1986;52.546;13.428;2024-03-07T06:19:58;2.60;99.90
3944;DHT22;1986;52.546;13.428;2024-03-07T06:22:25;2.70;99.90
3944;DHT22;1986;52.546;13.428;2024-03-07T06:24:52;2.70;99.90
3944;DHT22;1986;52.546;13.428;2024-03-07T06:27:22;2.80;99.90
3944;DHT22;1986;52.546;13.428;2024-03-07T06:30:03;2.90;99.90
3944;DHT22;1986;52.546;13.428;2024-03-07T06:32:35;3.00;99.90
3944;DHT22;1986;52.546;13.428;2024-03-07T06:35:37;3.00;99.90
3944;DHT22;1986;52.546;13.428;2024-03-07T06:37:58;3.20;99.90
3944;DHT22;1986;52.546;13.428;2024-03-07T06:40:32;3.20;99.90
3944;DHT22;1986;52.546;13.428;2024-03-07T06:43:05;3.00;99.90
3944;DHT22;1986;52.546;13.428;2024-03-07T06:45:41;3.20;99.90
3944;DHT22;1986;52.546;13.428;2024-03-07T06:48:13;3.20;99.90
3944;DHT22;1986;52.546;13.428;2024-03-07T06:50:40;3.10;99.90
3944;DHT22;1986;52.546;13.428;2024-03-07T06:53:08;3.20;99.90
3944;DHT22;1986;52.546;13.428;2024-03-07T06:55:38;3.10;99.90
3944;DHT22;1986;52.546;13.428;2024-03-07T06:58:08;3.00;99.90
3944;DHT22;1986;52.546;13.428;2024-03-07T07:00:37;3.10;99.90
3944;DHT22;1986;52.546;13.428;2024-03-07T07:03:06;3.20;99.90
3944;DHT22;1986;52.546;13.428;2024-03-07T07:05:36;3.10;99.90
3944;DHT22;1986;52.546;13.428;2024-03-07T07:08:05;3.10;99.90
3944;DHT22;1986;52.546;13.428;2024-03-07T07:10:32;3.30;99.90
3944;DHT22;1986;52.546;13.428;2024-03-07T07:13:00;3.20;99.90
3944;DHT22;1986;52.546;13.428;2024-03-07T07:15:35;3.20;99.90
3944;DHT22;1986;52.546;13.428;2024-03-07T07:18:15;3.30;99.90
3944;DHT22;1986;52.546;13.428;2024-03-07T07:20:54;3.20;99.90
3944;DHT22;1986;52.546;13.428;2024-03-07T07:23:37;3.10;99.90
3944;DHT22;1986;52.546;13.428;2024-03-07T07:26:11;3.20;99.90
3944;DHT22;1986;52.546;13.428;2024-03-07T07:28:38;3.10;99.90
3944;DHT22;1986;52.546;13.428;2024-03-07T07:31:08;3.00;99.90
3944;DHT22;1986;52.546;13.428;2024-03-07T07:33:35;3.20;99.90
3944;DHT22;1986;52.546;13.428;2024-03-07T07:36:05;3.20;99.90
3944;DHT22;1986;52.546;13.428;2024-03-07T07:38:34;3.30;99.90
3944;DHT22;1986;52.546;13.428;2024-03-07T07:41:01;3.40;99.90
3944;DHT22;1986;52.546;13.428;2024-03-07T07:43:28;3.60;99.90
3944;DHT22;1986;52.546;13.428;2024-03-07T07:45:55;3.70;99.90
3944;DHT22;1986;52.546;13.428;2024-03-07T07:48:26;3.60;99.90
3944;DHT22;1986;52.546;13.428;2024-03-07T07:50:53;3.70;99.90
3944;DHT22;1986;52.546;13.428;2024-03-07T07:53:20;3.60;99.90
3944;DHT22;1986;52.546;13.428;2024-03-07T07:55:47;3.80;99.90
3944;DHT22;1986;52.546;13.428;2024-03-07T07:58:21;3.70;99.90
3944;DHT22;1986;52.546;13.428;2024-03-07T08:00:48;3.80;99.90
3944;DHT22;1986;52.546;13.428;2024-03-07T08:05:52;3.90;99.90
3944;DHT22;1986;52.546;13.428;2024-03-07T08:08:20;4.00;99.90
3944;DHT22;1986;52.546;13.428;2024-03-07T08:10:50;3.80;99.90
3944;DHT22;1986;52.546;13.428;2024-03-07T08:13:19;3.80;99.90
3944;DHT22;1986;52.546;13.428;2024-03-07T08:15:47;3.80;99.90
3944;DHT22;1986;52.546;13.428;2024-03-07T08:18:14;4.00;99.90
3944;DHT22;1986;52.546;13.428;2024-03-07T08:20:42;3.90;99.90
3944;DHT22;1986;52.546;13.428;2024-03-07T08:23:13;4.10;99.90
3944;DHT22;1986;52.546;13.428;2024-03-07T08:25:40;4.10;99.90
3944;DHT22;1986;52.546;13.428;2024-03-07T08:28:09;4.10;99.90
3944;DHT22;1986;52.546;13.428;2024-03-07T08:30:36;4.10;99.90
3944;DHT22;1986;52.546;13.428;2024-03-07T08:33:05;4.30;99.90
3944;DHT22;1986;52.546;13.428;2024-03-07T08:35:36;4.30;99.90
3944;DHT22;1986;52.546;13.428;2024-03-07T08:38:03;4.50;99.90
3944;DHT22;1986;52.546;13.428;2024-03-07T08:40:35;4.50;99.90
3944;DHT22;1986;52.546;13.428;2024-03-07T08:43:03;4.40;99.90
3944;DHT22;1986;52.546;13.428;2024-03-07T08:45:34;4.40;99.90
3944;DHT22;1986;52.546;13.428;2024-03-07T08:48:04;4.50;99.20
3944;DHT22;1986;52.546;13.428;2024-03-07T08:50:32;4.60;98.90
3944;DHT22;1986;52.546;13.428;2024-03-07T08:53:00;4.70;98.40
3944;DHT22;1986;52.546;13.428;2024-03-07T08:55:27;4.60;94.30
3944;DHT22;1986;52.546;13.428;2024-03-07T08:57:58;4.70;91.50
3944;DHT22;1986;52.546;13.428;2024-03-07T09:00:25;4.80;83.50
3944;DHT22;1986;52.546;13.428;2024-03-07T09:02:54;4.40;69.00
3944;DHT22;1986;52.546;13.428;2024-03-07T09:05:24;4.50;67.80
3944;DHT22;1986;52.546;13.428;2024-03-07T09:07:54;4.60;56.70
3944;DHT22;1986;52.546;13.428;2024-03-07T09:10:28;5.00;55.90
3944;DHT22;1986;52.546;13.428;2024-03-07T09:12:58;5.20;47.10
3944;DHT22;1986;52.546;13.428;2024-03-07T09:15:29;5.10;20.50
3944;DHT22;1986;52.546;13.428;2024-03-07T09:18:08;5.30;5.80
3944;DHT22;1986;52.546;13.428;2024-03-07T09:20:37;5.20;1.00
3944;DHT22;1986;52.546;13.428;2024-03-07T09:23:06;5.30;1.00
3944;DHT22;1986;52.546;13.428;2024-03-07T09:25:37;5.40;1.00
3944;DHT22;1986;52.546;13.428;2024-03-07T09:28:07;5.30;1.00
3944;DHT22;1986;52.546;13.428;2024-03-07T09:30:34;5.60;1.00
3944;DHT22;1986;52.546;13.428;2024-03-07T09:33:04;5.50;1.00
3944;DHT22;1986;52.546;13.428;2024-03-07T09:35:34;5.60;1.00
3944;DHT22;1986;52.546;13.428;2024-03-07T09:38:09;5.70;1.00
3944;DHT22;1986;52.546;13.428;2024-03-07T09:40:40;6.00;1.00
3944;DHT22;1986;52.546;13.428;2024-03-07T09:43:12;5.80;1.00
3944;DHT22;1986;52.546;13.428;2024-03-07T09:45:42;6.10;1.00
3944;DHT22;1986;52.546;13.428;2024-03-07T09:48:23;6.30;1.00
3944;DHT22;1986;52.546;13.428;2024-03-07T09:50:58;6.20;99.90
3944;DHT22;1986;52.546;13.428;2024-03-07T09:53:27;6.10;1.00
3944;DHT22;1986;52.546;13.428;2024-03-07T09:55:56;6.10;99.90
3944;DHT22;1986;52.546;13.428;2024-03-07T09:58:31;6.20;99.90
3944;DHT22;1986;52.546;13.428;2024-03-07T10:01:00;6.30;91.50
3944;DHT22;1986;52.546;13.428;2024-03-07T10:03:30;6.30;99.90
3944;DHT22;1986;52.546;13.428;2024-03-07T10:05:57;6.60;1.00
3944;DHT22;1986;52.546;13.428;2024-03-07T10:08:27;6.40;1.00
3944;DHT22;1986;52.546;13.428;2024-03-07T10:11:00;6.40;1.00
3944;DHT22;1986;52.546;13.428;2024-03-07T10:13:40;6.10;1.00
3944;DHT22;1986;52.546;13.428;2024-03-07T10:16:08;6.20;1.00
3944;DHT22;1986;52.546;13.428;2024-03-07T10:18:42;6.10;1.00
3944;DHT22;1986;52.546;13.428;2024-03-07T10:21:11;6.10;1.00
3944;DHT22;1986;52.546;13.428;2024-03-07T10:23:45;6.40;1.00
3944;DHT22;1986;52.546;13.428;2024-03-07T10:26:18;6.60;1.00
3944;DHT22;1986;52.546;13.428;2024-03-07T10:28:48;6.80;99.90
3944;DHT22;1986;52.546;13.428;2024-03-07T10:31:28;7.00;99.90
3944;DHT22;1986;52.546;13.428;2024-03-07T10:34:00;6.80;1.00
3944;DHT22;1986;52.546;13.428;2024-03-07T10:36:28;6.80;1.00
3944;DHT22;1986;52.546;13.428;2024-03-07T10:38:56;6.70;1.00
3944;DHT22;1986;52.546;13.428;2024-03-07T10:41:44;6.50;1.00
3944;DHT22;1986;52.546;13.428;2024-03-07T10:44:19;6.70;1.00
3944;DHT22;1986;52.546;13.428;2024-03-07T10:46:54;6.80;1.00
3944;DHT22;1986;52.546;13.428;2024-03-07T10:49:26;7.10;1.00
3944;DHT22;1986;52.546;13.428;2024-03-07T10:52:02;6.70;1.00
3944;DHT22;1986;52.546;13.428;2024-03-07T10:54:38;6.60;1.00
3944;DHT22;1986;52.546;13.428;2024-03-07T10:57:19;6.70;1.00
3944;DHT22;1986;52.546;13.428;2024-03-07T11:00:03;6.60;1.00
3944;DHT22;1986;52.546;13.428;2024-03-07T11:02:56;6.80;1.00
3944;DHT22;1986;52.546;13.428;2024-03-07T11:05:27;6.90;1.00
3944;DHT22;1986;52.546;13.428;2024-03-07T11:08:24;7.00;1.00
3944;DHT22;1986;52.546;13.428;2024-03-07T11:11:00;6.90;1.00
3944;DHT22;1986;52.546;13.428;2024-03-07T11:13:28;7.00;1.00
3944;DHT22;1986;52.546;13.428;2024-03-07T11:15:58;7.00;1.00
3944;DHT22;1986;52.546;13.428;2024-03-07T11:18:26;6.80;1.00
3944;DHT22;1986;52.546;13.428;2024-03-07T11:20:54;6.80;1.00
3944;DHT22;1986;52.546;13.428;2024-03-07T11:23:27;6.70;1.00
3944;DHT22;1986;52.546;13.428;2024-03-07T11:26:03;6.80;1.00
3944;DHT22;1986;52.546;13.428;2024-03-07T11:28:35;6.70;1.00
3944;DHT22;1986;52.546;13.428;2024-03-07T11:31:13;6.60;1.00
3944;DHT22;1986;52.546;13.428;2024-03-07T11:34:11;6.80;1.00
3944;DHT22;1986;52.546;13.428;2024-03-07T11:36:44;6.90;1.00
3944;DHT22;1986;52.546;13.428;2024-03-07T11:39:41;6.90;1.00
3944;DHT22;1986;52.546;13.428;2024-03-07T11:42:19;7.10;1.00
3944;DHT22;1986;52.546;13.428;2024-03-07T11:44:48;7.30;1.00
3944;DHT22;1986;52.546;13.428;2024-03-07T11:47:18;7.20;1.00
3944;DHT22;1986;52.546;13.428;2024-03-07T11:49:46;7.20;1.00
3944;DHT22;1986;52.546;13.428;2024-03-07T11:52:24;7.00;1.00
3944;DHT22;1986;52.546;13.428;2024-03-07T11:54:56;6.80;1.00
3944;DHT22;1986;52.546;13.428;2024-03-07T11:57:31;6.60;1.00
3944;DHT22;1986;52.546;13.428;2024-03-07T11:59:59;6.70;1.00
3944;DHT22;1986;52.546;13.428;2024-03-07T12:02:37;6.70;1.00
3944;DHT22;1986;52.546;13.428;2024-03-07T12:05:04;6.80;1.00
3944;DHT22;1986;52.546;13.428;2024-03-07T12:07:32;6.80;1.00
3944;DHT22;1986;52.546;13.428;2024-03-07T12:10:08;6.60;1.00
3944;DHT22;1986;52.546;13.428;2024-03-07T12:12:52;6.70;1.00
3944;DHT22;1986;52.546;13.428;2024-03-07T12:15:22;7.10;1.00
3944;DHT22;1986;52.546;13.428;2024-03-07T12:17:54;7.20;1.00
3944;DHT22;1986;52.546;13.428;2024-03-07T12:20:23;7.20;99.90
3944;DHT22;1986;52.546;13.428;2024-03-07T12:23:04;7.10;99.90
3944;DHT22;1986;52.546;13.428;2024-03-07T12:25:45;7.00;1.00
3944;DHT22;1986;52.546;13.428;2024-03-07T12:28:15;7.00;1.00
3944;DHT22;1986;52.546;13.428;2024-03-07T12:30:49;7.40;1.00
3944;DHT22;1986;52.546;13.428;2024-03-07T12:33:21;7.30;99.90
3944;DHT22;1986;52.546;13.428;2024-03-07T12:35:51;7.40;99.90
3944;DHT22;1986;52.546;13.428;2024-03-07T12:38:22;7.10;99.90
3944;DHT22;1986;52.546;13.428;2024-03-07T12:41:05;7.00;99.90
3944;DHT22;1986;52.546;13.428;2024-03-07T12:43:34;7.10;99.90
3944;DHT22;1986;52.546;13.428;2024-03-07T12:46:01;6.90;99.90
3944;DHT22;1986;52.546;13.428;2024-03-07T12:48:37;7.20;99.90
3944;DHT22;1986;52.546;13.428;2024-03-07T12:51:05;7.20;99.90
3944;DHT22;1986;52.546;13.428;2024-03-07T12:53:32;7.20;99.90
3944;DHT22;1986;52.546;13.428;2024-03-07T12:56:11;7.30;99.90
3944;DHT22;1986;52.546;13.428;2024-03-07T12:58:42;7.60;99.90
3944;DHT22;1986;52.546;13.428;2024-03-07T13:01:10;7.40;99.90
3944;DHT22;1986;52.546;13.428;2024-03-07T13:03:41;7.50;99.90
3944;DHT22;1986;52.546;13.428;2024-03-07T13:06:10;7.30;99.90
3944;DHT22;1986;52.546;13.428;2024-03-07T13:08:37;7.20;99.90
3944;DHT22;1986;52.546;13.428;2024-03-07T13:11:07;7.10;99.90
3944;DHT22;1986;52.546;13.428;2024-03-07T13:13:35;7.00;99.90
3944;DHT22;1986;52.546;13.428;2024-03-07T13:16:04;7.10;99.90
3944;DHT22;1986;52.546;13.428;2024-03-07T13:18:32;7.30;99.90
3944;DHT22;1986;52.546;13.428;2024-03-07T13:21:01;7.40;99.90
3944;DHT22;1986;52.546;13.428;2024-03-07T13:23:29;7.40;62.50
3944;DHT22;1986;52.546;13.428;2024-03-07T13:26:00;7.50;45.30
3944;DHT22;1986;52.546;13.428;2024-03-07T13:28:34;7.60;27.00
3944;DHT22;1986;52.546;13.428;2024-03-07T13:31:03;7.60;22.80
3944;DHT22;1986;52.546;13.428;2024-03-07T13:33:31;7.70;25.50
3944;DHT22;1986;52.546;13.428;2024-03-07T13:36:02;7.60;28.40
3944;DHT22;1986;52.546;13.428;2024-03-07T13:38:35;7.40;26.00
3944;DHT22;1986;52.546;13.428;2024-03-07T13:41:08;7.30;37.40
3944;DHT22;1986;52.546;13.428;2024-03-07T13:43:44;7.40;36.90
3944;DHT22;1986;52.546;13.428;2024-03-07T13:46:14;7.50;27.90
3944;DHT22;1986;52.546;13.428;2024-03-07T13:48:43;7.50;15.80
3944;DHT22;1986;52.546;13.428;2024-03-07T13:51:13;7.50;7.40
3944;DHT22;1986;52.546;13.428;2024-03-07T13:53:43;7.40;7.90
3944;DHT22;1986;52.546;13.428;2024-03-07T13:56:44;7.40;11.10
3944;DHT22;1986;52.546;13.428;2024-03-07T13:59:26;7.50;15.40
3944;DHT22;1986;52.546;13.428;2024-03-07T14:02:04;7.60;14.60
3944;DHT22;1986;52.546;13.428;2024-03-07T14:05:11;7.70;7.10
3944;DHT22;1986;52.546;13.428;2024-03-07T14:07:56;7.70;22.80
3944;DHT22;1986;52.546;13.428;2024-03-07T14:10:52;7.70;52.20
3944;DHT22;1986;52.546;13.428;2024-03-07T14:13:39;7.70;66.40
3944;DHT22;1986;52.546;13.428;2024-03-07T14:16:34;7.60;51.30
3944;DHT22;1986;52.546;13.428;2024-03-07T14:19:32;7.70;28.60
3944;DHT22;1986;52.546;13.428;2024-03-07T14:22:27;7.60;6.80
3944;DHT22;1986;52.546;13.428;2024-03-07T14:28:26;7.60;12.50
3944;DHT22;1986;52.546;13.428;2024-03-07T14:30:55;7.60;20.40
3944;DHT22;1986;52.546;13.428;2024-03-07T14:33:28;7.60;23.50
3944;DHT22;1986;52.546;13.428;2024-03-07T14:36:01;7.60;22.70
3944;DHT22;1986;52.546;13.428;2024-03-07T14:38:42;7.70;14.70
3944;DHT22;1986;52.546;13.428;2024-03-07T14:41:17;7.60;7.20
3944;DHT22;1986;52.546;13.428;2024-03-07T14:43:48;7.60;9.70
3944;DHT22;1986;52.546;13.428;2024-03-07T14:46:17;7.60;1.00
3944;DHT22;1986;52.546;13.428;2024-03-07T14:48:52;7.50;1.00
3944;DHT22;1986;52.546;13.428;2024-03-07T14:51:22;7.50;1.00
3944;DHT22;1986;52.546;13.428;2024-03-07T14:53:50;7.50;1.00
3944;DHT22;1986;52.546;13.428;2024-03-07T14:56:27;7.60;1.00
3944;DHT22;1986;52.546;13.428;2024-03-07T14:58:56;7.50;1.00
3944;DHT22;1986;52.546;13.428;2024-03-07T15:01:40;7.50;1.00
3944;DHT22;1986;52.546;13.428;2024-03-07T15:04:14;7.50;1.00
3944;DHT22;1986;52.546;13.428;2024-03-07T15:06:56;7.60;1.00
3944;DHT22;1986;52.546;13.428;2024-03-07T15:09:40;7.60;1.00
3944;DHT22;1986;52.546;13.428;2024-03-07T15:12:09;7.60;1.00
3944;DHT22;1986;52.546;13.428;2024-03-07T15:17:45;7.50;1.00
3944;DHT22;1986;52.546;13.428;2024-03-07T15:20:29;7.50;1.00
3944;DHT22;1986;52.546;13.428;2024-03-07T15:23:25;7.50;1.00
3944;DHT22;1986;52.546;13.428;2024-03-07T15:26:06;7.50;1.00
3944;DHT22;1986;52.546;13.428;2024-03-07T15:31:40;7.60;1.00
3944;DHT22;1986;52.546;13.428;2024-03-07T15:35:02;7.60;1.00
3944;DHT22;1986;52.546;13.428;2024-03-07T15:37:38;7.60;1.00
3944;DHT22;1986;52.546;13.428;2024-03-07T15:40:25;7.60;1.00
3944;DHT22;1986;52.546;13.428;2024-03-07T15:42:56;7.60;1.00
3944;DHT22;1986;52.546;13.428;2024-03-07T15:45:28;7.50;1.00
3944;DHT22;1986;52.546;13.428;2024-03-07T15:51:32;7.50;11.10
3944;DHT22;1986;52.546;13.428;2024-03-07T15:54:21;7.50;18.70
3944;DHT22;1986;52.546;13.428;2024-03-07T15:57:12;7.50;28.70
3944;DHT22;1986;52.546;13.428;2024-03-07T15:59:53;7.50;37.70
3944;DHT22;1986;52.546;13.428;2024-03-07T16:02:34;7.40;49.80
3944;DHT22;1986;52.546;13.428;2024-03-07T16:05:06;7.40;68.00
3944;DHT22;1986;52.546;13.428;2024-03-07T16:17:45;7.40;99.90
3944;DHT22;1986;52.546;13.428;2024-03-07T16:20:08;7.30;99.90
3944;DHT22;1986;52.546;13.428;2024-03-07T16:22:53;7.30;99.90
3944;DHT22;1986;52.546;13.428;2024-03-07T16:25:36;7.30;99.90
3944;DHT22;1986;52.546;13.428;2024-03-07T16:28:09;7.20;99.90
3944;DHT22;1986;52.546;13.428;2024-03-07T16:30:38;7.20;99.90
3944;DHT22;1986;52.546;13.428;2024-03-07T16:33:21;7.20;99.90
3944;DHT22;1986;52.546;13.428;2024-03-07T16:35:55;7.20;99.90
3944;DHT22;1986;52.546;13.428;2024-03-07T16:38:23;7.10;99.90
3944;DHT22;1986;52.546;13.428;2024-03-07T16:40:56;7.20;99.90
3944;DHT22;1986;52.546;13.428;2024-03-07T16:43:24;7.10;99.90
3944;DHT22;1986;52.546;13.428;2024-03-07T16:46:03;7.00;99.90
3944;DHT22;1986;52.546;13.428;2024-03-07T16:48:35;7.00;99.90
3944;DHT22;1986;52.546;13.428;2024-03-07T16:51:04;7.00;99.90
3944;DHT22;1986;52.546;13.428;2024-03-07T16:53:39;7.00;99.90
3944;DHT22;1986;52.546;13.428;2024-03-07T16:56:09;7.00;99.90
3944;DHT22;1986;52.546;13.428;2024-03-07T16:58:37;7.00;99.90
3944;DHT22;1986;52.546;13.428;2024-03-07T17:01:04;6.90;1.00
3944;DHT22;1986;52.546;13.428;2024-03-07T17:03:34;6.90;1.00